Time;durP1;ratioP1;P1;durP2;ratioP2;P2;SDS_P1;SDS_P2;PMS_P1;PMS_P2;Temp;Humidity;BMP_temperature;BMP_pressure;BME280_temperature;BME280_humidity;BME280_pressure;Samples;Min_cycle;Max_cycle;Signal;HPM_P1;HPM_P2
2022/04/18 00:00:35;;;;;;;1.80;1.13;;;;;;;7.17;41.27;102121.25;4974857;28;96961;-83
2022/04/18 00:03:03;;;;;;;1.23;1.13;;;;;;;7.13;41.00;102117.84;4974169;28;97209;-82
2022/04/18 00:05:33;;;;;;;1.20;1.10;;;;;;;7.14;41.21;102120.13;4971555;28;97060;-82
2022/04/18 00:07:58;;;;;;;1.97;1.37;;;;;;;7.15;41.44;102112.72;4988658;28;96764;-82
2022/04/18 00:10:24;;;;;;;1.33;1.20;;;;;;;7.07;41.28;102111.38;4964323;28;97187;-83
2022/04/18 00:12:49;;;;;;;1.83;1.30;;;;;;;7.07;41.25;102131.31;4954098;28;99516;-82
2022/04/18 00:15:15;;;;;;;1.90;1.50;;;;;;;7.14;41.30;102108.44;4957214;28;96831;-82
2022/04/18 00:17:41;;;;;;;1.53;1.27;;;;;;;7.13;41.36;102110.41;4963590;28;96885;-82
2022/04/18 00:20:07;;;;;;;1.37;1.23;;;;;;;7.15;41.38;102108.00;4971488;28;96775;-82
2022/04/18 00:22:32;;;;;;;2.83;1.23;;;;;;;7.14;41.41;102111.94;4971364;28;98549;-83
2022/04/18 00:24:58;;;;;;;2.30;1.50;;;;;;;7.11;41.75;102118.28;4967171;28;100008;-83
2022/04/18 00:27:23;;;;;;;1.53;1.20;;;;;;;7.11;41.66;102107.34;4969692;28;96943;-82
2022/04/18 00:29:50;;;;;;;1.80;1.10;;;;;;;7.05;41.89;102109.06;4973840;28;96565;-82
2022/04/18 00:32:16;;;;;;;1.43;1.30;;;;;;;7.03;41.94;102100.53;4971536;28;98846;-82
2022/04/18 00:34:42;;;;;;;2.63;1.70;;;;;;;6.96;41.67;102119.88;4970973;28;96879;-83
2022/04/18 00:37:07;;;;;;;1.50;1.40;;;;;;;6.93;41.72;102098.84;4970835;28;97002;-83
2022/04/18 00:39:33;;;;;;;1.43;1.33;;;;;;;6.89;41.96;102109.09;4974387;28;96754;-82
2022/04/18 00:41:58;;;;;;;1.40;1.30;;;;;;;6.89;41.83;102098.16;4988796;28;98059;-83
2022/04/18 00:44:24;;;;;;;1.53;1.43;;;;;;;6.87;42.17;102108.00;4978923;28;98571;-82
2022/04/18 00:46:49;;;;;;;1.90;1.37;;;;;;;6.86;42.07;102099.00;4982109;28;96639;-83
2022/04/18 00:49:14;;;;;;;1.77;1.60;;;;;;;6.82;42.04;102103.81;4961157;28;97214;-82
2022/04/18 00:51:40;;;;;;;1.40;1.23;;;;;;;6.78;42.11;102095.72;4968329;28;97100;-83
2022/04/18 00:54:06;;;;;;;1.70;1.60;;;;;;;6.74;42.32;102088.78;4968388;28;97334;-83
2022/04/18 00:56:32;;;;;;;2.80;2.20;;;;;;;6.71;42.09;102086.91;4964671;28;97087;-82
2022/04/18 00:58:58;;;;;;;1.80;1.53;;;;;;;6.68;42.27;102085.81;4968432;28;96968;-83
2022/04/18 01:01:24;;;;;;;2.10;1.20;;;;;;;6.66;42.27;102084.72;4979700;28;98457;-82
2022/04/18 01:03:50;;;;;;;2.50;1.50;;;;;;;6.64;42.23;102078.91;4970888;28;99961;-83
2022/04/18 01:06:16;;;;;;;1.30;1.20;;;;;;;6.62;42.44;102084.78;4971425;28;96812;-83
2022/04/18 01:08:43;;;;;;;1.50;1.40;;;;;;;6.58;42.46;102086.84;4975049;28;97209;-83
2022/04/18 01:11:09;;;;;;;6.80;1.50;;;;;;;6.54;42.44;102079.94;4964884;28;97219;-83
2022/04/18 01:13:46;;;;;;;3.70;1.90;;;;;;;6.50;43.51;102082.00;4973833;28;96882;-82
2022/04/18 01:16:12;;;;;;;2.13;1.93;;;;;;;6.47;42.34;102080.09;4986146;28;97621;-83
2022/04/18 01:18:38;;;;;;;4.00;2.40;;;;;;;6.41;42.33;102070.91;4969989;28;97295;-83
2022/04/18 01:21:05;;;;;;;2.10;1.70;;;;;;;6.34;42.51;102076.53;4968170;28;98215;-82
2022/04/18 01:23:30;;;;;;;2.03;1.87;;;;;;;6.31;42.81;102067.22;4967378;28;98794;-83
2022/04/18 01:31:27;;;;;;;3.23;2.00;;;;;;;6.23;42.63;102056.91;4969914;28;101163;-83
2022/04/18 01:33:53;;;;;;;2.30;1.73;;;;;;;6.19;42.90;102067.16;4967360;28;102185;-83
2022/04/18 01:36:18;;;;;;;2.30;2.10;;;;;;;6.15;42.94;102055.53;4972414;28;96904;-82
2022/04/18 01:38:43;;;;;;;2.40;2.20;;;;;;;6.06;42.94;102039.75;4967671;28;97361;-83
2022/04/18 01:41:09;;;;;;;2.57;2.17;;;;;;;6.01;43.14;102054.69;4970296;28;97539;-84
2022/04/18 01:43:34;;;;;;;2.20;1.90;;;;;;;5.93;43.16;102058.00;4970623;28;97396;-84
2022/04/18 01:46:00;;;;;;;3.37;2.10;;;;;;;5.82;43.20;102044.56;4990931;28;98452;-84
2022/04/18 01:48:25;;;;;;;2.20;1.80;;;;;;;5.78;43.39;102052.09;4967731;28;96842;-84
2022/04/18 01:50:50;;;;;;;3.10;2.13;;;;;;;5.71;43.21;102048.72;4963862;28;100614;-82
2022/04/18 01:53:16;;;;;;;2.50;1.90;;;;;;;5.66;43.60;102050.00;4964146;28;98348;-84
2022/04/18 01:55:41;;;;;;;2.13;1.80;;;;;;;5.60;43.74;102050.94;4981684;28;96879;-84
2022/04/18 01:58:08;;;;;;;4.60;2.30;;;;;;;5.57;43.65;102049.81;4967538;28;97461;-84
2022/04/18 02:00:33;;;;;;;1.97;1.77;;;;;;;5.53;43.65;102051.84;4974932;28;98420;-84
2022/04/18 02:02:59;;;;;;;2.57;1.70;;;;;;;5.47;43.81;102064.47;4971671;28;98471;-84
2022/04/18 02:05:24;;;;;;;5.63;2.30;;;;;;;5.40;43.81;102040.03;4970053;28;97030;-84
2022/04/18 02:07:50;;;;;;;3.40;1.67;;;;;;;5.31;43.90;102034.38;4964361;28;96979;-84
2022/04/18 02:10:16;;;;;;;2.00;1.90;;;;;;;5.24;44.02;102056.38;4967707;28;98598;-84
2022/04/18 02:12:41;;;;;;;2.07;1.70;;;;;;;5.20;44.26;102042.03;4973374;28;97467;-84
2022/04/18 02:15:09;;;;;;;1.80;1.63;;;;;;;5.18;44.46;102033.50;4968733;28;96871;-84
2022/04/18 02:17:34;;;;;;;2.17;1.73;;;;;;;5.13;44.49;102042.19;4974385;28;97383;-85
2022/04/18 02:20:00;;;;;;;1.77;1.57;;;;;;;5.04;44.24;102031.06;4984648;28;99569;-83
2022/04/18 02:22:26;;;;;;;1.87;1.77;;;;;;;5.05;44.42;102027.91;4979229;28;97881;-84
2022/04/18 02:24:52;;;;;;;2.80;2.17;;;;;;;5.08;44.22;102029.81;4967687;28;96673;-83
2022/04/18 02:27:17;;;;;;;2.53;1.90;;;;;;;5.04;44.45;102022.88;4968438;28;96809;-84
2022/04/18 02:29:43;;;;;;;2.50;2.00;;;;;;;4.96;44.42;102040.56;4976970;28;98623;-84
2022/04/18 02:34:52;;;;;;;2.23;1.90;;;;;;;4.87;44.53;102030.22;4967080;28;97034;-84
2022/04/18 02:37:18;;;;;;;2.93;1.73;;;;;;;4.88;44.64;102023.59;4963363;28;96776;-84
2022/04/18 02:39:43;;;;;;;2.63;1.87;;;;;;;4.83;44.55;102031.47;4965256;28;97757;-83
2022/04/18 02:42:08;;;;;;;4.33;2.03;;;;;;;4.83;44.78;102032.25;4968114;28;97751;-84
2022/04/18 02:44:34;;;;;;;2.03;1.83;;;;;;;4.83;44.66;102029.50;4974185;28;97276;-85
2022/04/18 02:46:59;;;;;;;2.17;1.70;;;;;;;4.77;44.66;102012.13;4968769;28;96873;-86
2022/04/18 02:49:25;;;;;;;2.97;1.70;;;;;;;4.73;44.94;102011.41;4964750;28;99329;-84
2022/04/18 02:51:50;;;;;;;2.83;2.00;;;;;;;4.69;44.85;102010.72;4972718;28;97117;-85
2022/04/18 02:54:16;;;;;;;2.03;1.83;;;;;;;4.68;45.05;102020.06;4983264;28;96729;-85
2022/04/18 02:56:41;;;;;;;3.20;1.83;;;;;;;4.69;45.00;102012.66;4968426;28;96972;-85
2022/04/18 02:59:06;;;;;;;1.47;1.30;;;;;;;4.68;45.13;102003.72;4967176;28;97222;-84
2022/04/18 03:01:32;;;;;;;2.67;1.63;;;;;;;4.72;45.15;102003.66;4983248;28;97185;-84
2022/04/18 03:03:57;;;;;;;2.00;1.60;;;;;;;4.73;44.86;102007.91;4973256;28;96916;-84
2022/04/18 03:06:23;;;;;;;2.00;1.30;;;;;;;4.74;45.06;102009.47;4975017;28;96844;-85
2022/04/18 03:08:48;;;;;;;3.80;1.80;;;;;;;4.69;45.05;102013.44;4981178;28;97252;-84
2022/04/18 03:11:14;;;;;;;3.90;1.90;;;;;;;4.72;45.13;102009.13;4989602;28;103479;-84
2022/04/18 03:13:46;;;;;;;3.97;1.87;;;;;;;4.70;45.12;101995.13;4975407;28;97409;-84
2022/04/18 03:16:13;;;;;;;2.80;1.90;;;;;;;4.64;45.20;101991.34;4965965;28;97112;-84
2022/04/18 03:18:39;;;;;;;2.50;1.80;;;;;;;4.64;45.46;101988.63;4962914;28;97025;-85
2022/04/18 03:21:04;;;;;;;1.80;1.37;;;;;;;4.67;45.24;101980.38;4967427;28;97083;-84
2022/04/18 03:23:30;;;;;;;1.90;1.40;;;;;;;4.71;45.37;101981.09;4974894;28;97012;-81
2022/04/18 03:25:57;;;;;;;2.73;1.70;;;;;;;4.71;45.37;101983.03;4974457;28;96963;-82
2022/04/18 03:28:22;;;;;;;2.87;2.00;;;;;;;4.72;45.37;101979.88;4959199;28;97064;-84
2022/04/18 03:30:48;;;;;;;2.00;1.70;;;;;;;4.74;45.31;101985.69;4958838;28;98106;-81
2022/04/18 03:33:13;;;;;;;2.40;1.67;;;;;;;4.77;45.12;101978.63;4970857;28;96781;-83
2022/04/18 03:39:50;;;;;;;3.53;2.40;;;;;;;4.76;45.31;101971.66;4974859;28;97056;-82
2022/04/18 03:41:08;;;;;;;2.77;1.53;;;;;;;4.73;45.38;101973.25;4974379;28;96628;-82
2022/04/18 03:43:34;;;;;;;1.90;1.63;;;;;;;4.67;45.71;101979.63;4991429;28;97307;-82
2022/04/18 03:46:00;;;;;;;2.33;1.90;;;;;;;4.69;45.46;101985.41;4963925;28;97044;-82
2022/04/18 03:48:25;;;;;;;2.73;1.63;;;;;;;4.62;45.75;101991.00;4973322;28;100671;-83
2022/04/18 03:50:51;;;;;;;2.70;1.43;;;;;;;4.55;45.83;101984.50;4990250;28;98081;-84
2022/04/18 03:53:16;;;;;;;1.87;1.60;;;;;;;4.55;45.71;101989.94;4966723;28;97234;-82
2022/04/18 03:55:41;;;;;;;2.57;2.00;;;;;;;4.52;45.67;102004.41;4976372;28;96938;-83
2022/04/18 03:58:07;;;;;;;1.80;1.67;;;;;;;4.48;45.56;101971.00;4969532;28;98605;-83
2022/04/18 04:00:34;;;;;;;2.27;1.90;;;;;;;4.43;45.84;101985.09;4982561;28;98527;-82
2022/04/18 04:03:00;;;;;;;5.20;1.67;;;;;;;4.39;46.02;101968.03;4972660;28;97226;-83
2022/04/18 04:05:32;;;;;;;2.00;1.80;;;;;;;4.38;45.99;101969.25;4945697;28;96845;-82
2022/04/18 04:07:58;;;;;;;2.33;1.93;;;;;;;4.33;46.07;101961.53;4937826;28;98396;-82
2022/04/18 04:10:23;;;;;;;1.63;1.40;;;;;;;4.31;45.94;101976.75;4975829;28;97674;-83
2022/04/18 04:12:49;;;;;;;2.10;1.43;;;;;;;4.31;46.12;101966.66;4973431;28;97012;-85
2022/04/18 04:15:14;;;;;;;2.60;1.77;;;;;;;4.32;46.04;101970.94;4975394;28;97236;-84
2022/04/18 04:17:40;;;;;;;1.60;1.50;;;;;;;4.28;46.36;101964.75;4975904;28;97670;-84
2022/04/18 04:20:06;;;;;;;1.70;1.60;;;;;;;4.28;46.29;101958.56;4965828;28;96864;-84
2022/04/18 04:22:32;;;;;;;1.60;1.50;;;;;;;4.26;46.10;101958.94;4980689;28;97256;-84
2022/04/18 04:24:58;;;;;;;3.00;1.20;;;;;;;4.31;46.40;101974.03;4966104;28;96973;-84
2022/04/18 04:27:23;;;;;;;0.93;0.93;;;;;;;4.30;46.50;101967.81;4982326;28;98454;-84
2022/04/18 04:29:48;;;;;;;1.40;1.30;;;;;;;4.32;46.27;101957.31;4977449;28;96868;-84
2022/04/18 04:32:14;;;;;;;1.87;1.20;;;;;;;4.33;46.24;101947.16;4977847;28;97342;-84
2022/04/18 04:34:41;;;;;;;1.40;1.30;;;;;;;4.32;46.33;101954.56;4966919;28;96793;-85
2022/04/18 04:37:06;;;;;;;1.63;1.53;;;;;;;4.35;46.38;101948.28;4973420;28;97554;-85
2022/04/18 04:39:31;;;;;;;1.60;1.50;;;;;;;4.38;46.37;101947.44;4976385;28;97658;-85
2022/04/18 04:41:57;;;;;;;1.30;1.20;;;;;;;4.41;46.34;101964.94;5000755;28;97020;-83
2022/04/18 04:44:22;;;;;;;1.70;1.60;;;;;;;4.39;46.03;101954.44;4973642;28;96940;-84
2022/04/18 04:46:48;;;;;;;1.97;1.73;;;;;;;4.42;46.27;101950.88;4980736;28;99450;-84
2022/04/18 04:49:13;;;;;;;1.67;1.57;;;;;;;4.42;46.48;101947.38;4965752;28;97350;-84
2022/04/18 04:51:39;;;;;;;1.90;1.70;;;;;;;4.46;46.64;101959.75;4973151;28;97071;-85
2022/04/18 04:54:05;;;;;;;3.63;1.87;;;;;;;4.44;46.52;101958.63;4967147;28;96814;-84
2022/04/18 04:56:30;;;;;;;1.67;1.47;;;;;;;4.49;46.63;101967.09;4971474;28;97608;-84
2022/04/18 04:58:55;;;;;;;1.30;1.03;;;;;;;4.52;46.39;101955.34;4972386;28;96666;-85
2022/04/18 05:01:22;;;;;;;1.80;1.70;;;;;;;4.56;46.55;101947.13;4973966;28;98261;-84
2022/04/18 05:03:48;;;;;;;2.53;1.73;;;;;;;4.57;46.65;101948.63;4973092;28;96787;-85
2022/04/18 05:06:14;;;;;;;1.50;1.40;;;;;;;4.56;46.47;101939.69;4963310;28;98841;-84
2022/04/18 05:08:40;;;;;;;2.77;1.80;;;;;;;4.59;46.72;101957.16;4978475;28;96778;-85
2022/04/18 05:11:08;;;;;;;3.50;1.90;;;;;;;4.57;46.86;101941.25;4962180;28;96893;-85
2022/04/18 05:13:33;;;;;;;1.57;1.40;;;;;;;4.55;46.76;101946.34;4965244;28;97225;-84
2022/04/18 05:15:59;;;;;;;5.43;2.40;;;;;;;4.54;46.72;101955.69;4978571;28;98305;-84
2022/04/18 05:18:24;;;;;;;1.73;1.63;;;;;;;4.53;46.75;101931.59;4975102;28;96826;-84
2022/04/18 05:20:50;;;;;;;1.53;1.43;;;;;;;4.56;47.10;101956.03;4979869;28;96840;-84
2022/04/18 05:23:16;;;;;;;1.93;1.57;;;;;;;4.63;46.70;101943.50;4966247;28;96853;-84
2022/04/18 05:25:42;;;;;;;1.83;1.60;;;;;;;4.68;46.58;101942.97;4964111;28;104803;-84
2022/04/18 05:28:09;;;;;;;1.60;1.27;;;;;;;4.67;46.95;101931.31;4975383;28;97731;-84
2022/04/18 05:30:36;;;;;;;1.83;1.60;;;;;;;4.70;47.05;101943.31;4981368;28;96781;-84
2022/04/18 05:33:02;;;;;;;2.53;1.70;;;;;;;4.72;46.63;101952.63;4966321;28;96674;-84
2022/04/18 05:35:27;;;;;;;2.83;1.70;;;;;;;4.73;46.79;101939.75;4979669;28;97752;-84
2022/04/18 05:37:52;;;;;;;2.70;1.90;;;;;;;4.82;46.93;101948.16;4972901;28;96795;-84
2022/04/18 05:40:18;;;;;;;6.20;1.60;;;;;;;4.88;46.88;101954.63;4981844;28;97012;-83
2022/04/18 05:42:43;;;;;;;2.93;1.83;;;;;;;4.88;46.93;101960.88;4972312;28;96765;-83
2022/04/18 05:45:09;;;;;;;1.87;1.73;;;;;;;4.92;46.93;101936.25;4964740;28;97918;-85
2022/04/18 05:47:35;;;;;;;1.17;1.10;;;;;;;4.97;46.96;101954.84;4962618;28;97710;-84
2022/04/18 05:50:00;;;;;;;2.13;1.90;;;;;;;4.99;47.02;101961.41;4977394;28;96697;-84
2022/04/18 05:52:26;;;;;;;1.77;1.60;;;;;;;4.99;47.17;101960.66;4972423;28;97238;-84
2022/04/18 05:54:51;;;;;;;2.30;2.10;;;;;;;5.08;47.26;101958.91;4971148;28;96978;-84
2022/04/18 05:57:16;;;;;;;1.80;1.70;;;;;;;5.14;47.12;101953.69;4978201;28;97455;-83
2022/04/18 05:59:42;;;;;;;2.83;2.07;;;;;;;5.22;47.65;101960.56;4979771;28;96963;-84
2022/04/18 06:02:08;;;;;;;2.03;1.70;;;;;;;5.25;47.53;101954.22;4973826;28;97167;-84
2022/04/18 06:04:34;;;;;;;2.20;1.80;;;;;;;5.30;47.20;101962.69;4966481;28;97284;-84
2022/04/18 06:06:59;;;;;;;2.97;1.60;;;;;;;5.42;47.55;101955.03;4973108;28;98649;-84
2022/04/18 06:09:24;;;;;;;2.23;2.03;;;;;;;5.49;47.45;101961.09;4976714;28;96872;-84
2022/04/18 06:11:51;;;;;;;2.87;1.77;;;;;;;5.60;47.67;101955.38;4975095;28;96964;-84
2022/04/18 06:14:16;;;;;;;1.90;1.80;;;;;;;5.66;47.60;101946.25;4968743;28;96975;-84
2022/04/18 06:16:42;;;;;;;2.20;1.50;;;;;;;5.77;47.57;101973.31;4975256;28;97046;-83
2022/04/18 06:19:07;;;;;;;1.77;1.60;;;;;;;5.87;47.61;101956.72;4968106;28;96693;-84
2022/04/18 06:21:33;;;;;;;1.60;1.50;;;;;;;5.98;47.55;101949.00;4972380;28;97236;-83
2022/04/18 06:23:58;;;;;;;2.07;1.87;;;;;;;6.12;47.50;101966.22;4970725;28;97215;-83
2022/04/18 06:26:24;;;;;;;1.87;1.70;;;;;;;6.21;47.57;101952.72;4971996;28;96660;-84
2022/04/18 06:28:49;;;;;;;1.43;1.33;;;;;;;6.31;47.47;101951.69;4975838;28;96950;-84
2022/04/18 06:31:14;;;;;;;2.67;1.73;;;;;;;6.42;47.80;101960.38;4975178;28;96810;-84
2022/04/18 06:33:40;;;;;;;2.10;1.83;;;;;;;6.58;47.73;101971.25;4973687;28;103423;-84
2022/04/18 06:36:05;;;;;;;2.30;1.60;;;;;;;6.73;47.81;101966.91;4966204;28;98187;-83
2022/04/18 06:38:31;;;;;;;2.20;1.73;;;;;;;6.88;47.42;101957.09;4968031;28;97781;-84
2022/04/18 06:40:59;;;;;;;2.47;1.97;;;;;;;7.01;47.83;101948.94;4977036;28;96944;-85
2022/04/18 06:43:25;;;;;;;2.47;1.60;;;;;;;7.17;47.71;101955.06;4965291;28;98865;-83
2022/04/18 06:45:50;;;;;;;2.40;1.93;;;;;;;7.32;47.57;101958.16;4970437;28;102742;-83
2022/04/18 06:48:16;;;;;;;4.50;2.10;;;;;;;7.48;47.38;101963.53;4971412;28;96641;-84
2022/04/18 06:50:42;;;;;;;4.57;3.03;;;;;;;7.64;47.25;101981.81;4965491;28;98614;-83
2022/04/18 06:53:07;;;;;;;9.60;2.93;;;;;;;7.80;47.64;101957.03;4964497;28;97820;-84
2022/04/18 06:58:17;;;;;;;2.30;2.13;;;;;;;8.12;47.44;101960.25;4963997;28;97426;-83
2022/04/18 07:00:42;;;;;;;3.30;2.80;;;;;;;8.27;47.38;101960.56;4970451;28;96852;-84
2022/04/18 07:03:08;;;;;;;2.87;2.13;;;;;;;8.43;47.22;101967.84;4992621;28;99909;-83
2022/04/18 07:05:33;;;;;;;3.67;2.90;;;;;;;8.57;47.27;101957.13;4966743;28;98197;-83
2022/04/18 07:07:59;;;;;;;3.67;3.07;;;;;;;8.74;47.06;101958.47;4964237;28;96925;-81
2022/04/18 07:10:24;;;;;;;4.57;2.87;;;;;;;8.93;47.08;101945.63;4965859;28;97197;-84
2022/04/18 07:12:50;;;;;;;2.80;2.60;;;;;;;9.14;47.12;101949.53;4968531;28;100200;-84
2022/04/18 07:15:15;;;;;;;5.93;2.90;;;;;;;9.30;46.78;101958.34;4977511;28;99765;-83
2022/04/18 07:17:40;;;;;;;4.40;3.23;;;;;;;9.44;46.86;101946.78;4967472;28;97209;-83
2022/04/18 07:20:06;;;;;;;3.80;2.67;;;;;;;9.67;46.55;101949.00;4965515;28;96831;-83
2022/04/18 07:22:37;;;;;;;3.77;3.37;;;;;;;9.89;46.64;101970.88;4974680;28;97040;-84
2022/04/18 07:25:03;;;;;;;3.63;2.97;;;;;;;10.09;46.55;101945.72;4969321;28;97376;-84
2022/04/18 07:27:28;;;;;;;2.63;2.43;;;;;;;10.28;46.14;101950.03;4970511;28;97023;-83
2022/04/18 07:29:55;;;;;;;4.93;3.30;;;;;;;10.50;46.11;101948.66;4967322;28;97121;-83
2022/04/18 07:32:20;;;;;;;2.90;2.60;;;;;;;10.69;46.00;101946.63;4969182;28;98047;-83
2022/04/18 07:34:47;;;;;;;2.90;2.60;;;;;;;10.91;45.83;101962.94;4977106;28;97363;-81
2022/04/18 07:37:12;;;;;;;6.27;3.53;;;;;;;11.11;45.66;101952.94;4975278;28;96979;-82
2022/04/18 07:39:38;;;;;;;4.30;2.90;;;;;;;11.35;45.67;101949.50;4967530;28;99413;-83
2022/04/18 07:42:04;;;;;;;3.60;3.07;;;;;;;11.59;45.22;101959.34;4967057;28;225558;-83
2022/04/18 07:44:29;;;;;;;3.20;2.90;;;;;;;11.81;45.11;101957.09;4972916;28;97917;-83
2022/04/18 07:46:55;;;;;;;2.63;2.43;;;;;;;12.01;44.96;101953.75;4973174;28;96844;-83
2022/04/18 07:49:20;;;;;;;2.77;2.57;;;;;;;12.20;44.65;101944.09;4972595;28;96732;-85
2022/04/18 07:51:46;;;;;;;4.77;3.33;;;;;;;12.38;44.57;101941.19;4971661;28;99167;-83
2022/04/18 07:54:17;;;;;;;2.50;1.90;;;;;;;12.61;44.42;101942.34;4968572;28;99405;-82
2022/04/18 07:56:43;;;;;;;2.83;2.43;;;;;;;12.85;44.44;101951.31;4965299;28;97069;-83
2022/04/18 07:59:10;;;;;;;3.87;2.97;;;;;;;13.07;44.08;101935.16;4967552;28;97050;-80
2022/04/18 08:01:35;;;;;;;3.17;2.87;;;;;;;13.27;44.15;101945.50;4972233;28;98658;-79
2022/04/18 08:04:01;;;;;;;3.73;2.90;;;;;;;13.44;43.71;101952.03;4970325;28;97301;-80
2022/04/18 08:06:27;;;;;;;2.70;2.50;;;;;;;13.66;43.95;101943.28;4965744;28;96904;-81
2022/04/18 08:08:53;;;;;;;3.37;3.07;;;;;;;13.79;43.35;101949.25;4974735;28;96713;-84
2022/04/18 08:11:19;;;;;;;3.57;2.57;;;;;;;13.91;43.43;101948.91;4971294;28;97230;-81
2022/04/18 08:13:45;;;;;;;4.07;3.13;;;;;;;14.10;43.46;101950.19;4976935;28;98155;-84
2022/04/18 08:16:13;;;;;;;4.00;2.57;;;;;;;14.24;42.84;101956.88;4968196;28;96919;-83
2022/04/18 08:18:42;;;;;;;3.00;2.70;;;;;;;14.42;43.12;101958.59;4967622;28;96717;-81
2022/04/18 08:21:08;;;;;;;3.33;2.97;;;;;;;14.60;42.76;101945.22;4969305;28;97289;-82
2022/04/18 08:23:34;;;;;;;4.50;3.37;;;;;;;14.73;42.51;101942.06;4967756;28;98923;-83
2022/04/18 08:26:01;;;;;;;3.50;3.17;;;;;;;14.83;42.32;101949.69;4969621;28;97017;-84
2022/04/18 08:28:26;;;;;;;4.73;3.10;;;;;;;14.99;42.43;101957.41;4976505;28;99927;-82
2022/04/18 08:30:53;;;;;;;5.17;2.97;;;;;;;15.17;42.26;101950.75;4974280;28;97117;-82
2022/04/18 08:33:18;;;;;;;5.13;3.93;;;;;;;15.38;42.01;101962.47;4975548;28;97778;-82
2022/04/18 08:35:44;;;;;;;4.03;3.30;;;;;;;15.54;41.55;101959.88;4970848;28;97221;-84
2022/04/18 08:38:09;;;;;;;3.53;3.00;;;;;;;15.71;41.54;101941.28;4969675;28;96979;-82
2022/04/18 08:40:36;;;;;;;4.73;3.33;;;;;;;15.90;41.31;101941.63;4972362;28;99199;-81
2022/04/18 08:43:02;;;;;;;4.80;3.73;;;;;;;16.02;40.64;101934.88;4971340;28;98614;-83
2022/04/18 08:45:27;;;;;;;5.30;2.90;;;;;;;16.15;41.02;101940.72;4975250;28;97035;-82
2022/04/18 08:53:31;;;;;;;4.40;3.10;;;;;;;16.82;40.17;101946.47;4971804;28;101279;-82
2022/04/18 08:55:59;;;;;;;4.37;3.07;;;;;;;17.02;39.80;101932.28;4986951;28;97394;-83
2022/04/18 08:58:28;;;;;;;2.80;2.60;;;;;;;17.14;39.35;101939.38;4969515;28;97340;-83
2022/04/18 09:00:56;;;;;;;3.40;3.10;;;;;;;17.25;39.11;101922.69;4966950;28;97760;-85
2022/04/18 09:03:22;;;;;;;4.00;3.57;;;;;;;17.18;38.85;101920.41;4971783;28;103937;-83
2022/04/18 09:05:47;;;;;;;3.40;2.60;;;;;;;17.31;38.77;101928.22;4965080;28;97171;-83
2022/04/18 09:08:13;;;;;;;4.30;3.10;;;;;;;17.54;38.40;101915.84;4960498;28;96891;-81
2022/04/18 09:10:40;;;;;;;2.80;2.60;;;;;;;17.74;38.49;101916.25;4965284;28;98268;-82
2022/04/18 09:13:06;;;;;;;2.73;2.50;;;;;;;17.87;38.31;101915.69;4963949;28;97069;-84
2022/04/18 09:15:46;;;;;;;2.70;2.50;;;;;;;18.04;36.87;101908.03;4974248;28;99031;-82
2022/04/18 09:18:13;;;;;;;2.50;2.30;;;;;;;18.23;38.22;101908.94;4968733;28;97395;-81
2022/04/18 09:20:49;;;;;;;2.83;2.20;;;;;;;18.44;35.83;101906.53;4964118;28;97066;-83
2022/04/18 09:23:19;;;;;;;2.27;2.17;;;;;;;18.37;36.63;101916.19;4971279;28;103586;-85
2022/04/18 09:25:45;;;;;;;3.00;2.50;;;;;;;18.36;37.05;101927.88;4982791;28;96962;-85
2022/04/18 09:28:11;;;;;;;2.10;2.00;;;;;;;18.32;36.84;101907.88;4971814;28;96911;-83
2022/04/18 09:30:37;;;;;;;2.50;2.30;;;;;;;18.23;36.37;101908.19;4976293;28;97751;-84
2022/04/18 09:33:06;;;;;;;3.63;1.97;;;;;;;18.45;36.47;101922.00;4967898;28;97399;-83
2022/04/18 09:35:32;;;;;;;1.60;1.50;;;;;;;18.64;36.46;101906.16;4968708;28;96927;-82
2022/04/18 09:38:06;;;;;;;1.60;1.50;;;;;;;18.85;35.08;101892.56;4970363;28;96837;-83
2022/04/18 09:40:32;;;;;;;2.40;2.20;;;;;;;18.95;35.96;101897.31;4955943;28;98882;-80
2022/04/18 09:42:58;;;;;;;3.03;2.17;;;;;;;19.03;35.90;101887.06;4966467;28;99757;-80
2022/04/18 09:45:24;;;;;;;2.47;2.27;;;;;;;18.99;35.47;101883.06;4969062;28;96998;-83
2022/04/18 09:47:57;;;;;;;2.97;2.07;;;;;;;18.80;34.01;101882.97;4968422;28;97239;-83
2022/04/18 09:53:22;;;;;;;1.83;1.73;;;;;;;19.00;34.91;101885.31;4965000;28;100194;-80
2022/04/18 09:55:51;;;;;;;3.10;2.80;;;;;;;19.05;35.00;101869.81;4970181;28;97019;-82
2022/04/18 09:58:17;;;;;;;2.63;2.43;;;;;;;19.11;34.85;101871.25;4967351;28;97179;-85
2022/04/18 10:00:42;;;;;;;2.60;2.40;;;;;;;19.08;35.08;101869.53;4968848;28;98535;-84
2022/04/18 10:03:08;;;;;;;2.33;2.13;;;;;;;19.02;34.92;101865.28;4971005;28;99935;-81
2022/04/18 10:05:34;;;;;;;3.47;2.70;;;;;;;19.11;34.89;101862.16;4966628;28;98499;-81
2022/04/18 10:08:04;;;;;;;2.33;2.17;;;;;;;19.26;34.95;101860.44;4968742;28;97162;-84
2022/04/18 10:10:34;;;;;;;3.07;2.87;;;;;;;19.18;34.39;101864.34;4971412;28;97978;-81
2022/04/18 10:13:00;;;;;;;2.63;2.43;;;;;;;19.24;34.73;101854.63;4976320;28;97706;-83
2022/04/18 10:15:29;;;;;;;2.57;2.37;;;;;;;19.27;34.06;101847.25;4965547;28;97185;-81
2022/04/18 10:17:56;;;;;;;2.83;2.63;;;;;;;19.34;34.73;101850.25;4985885;28;97214;-83
2022/04/18 10:20:33;;;;;;;2.53;2.40;;;;;;;19.41;33.94;101852.47;4975112;28;98909;-82
2022/04/18 10:23:23;;;;;;;2.80;2.60;;;;;;;19.40;33.85;101841.81;4964907;28;97118;-82
2022/04/18 10:26:09;;;;;;;2.87;2.67;;;;;;;19.27;32.83;101836.84;4966408;28;97849;-82
2022/04/18 10:28:39;;;;;;;3.43;2.40;;;;;;;19.42;34.02;101839.25;4976410;28;98156;-81
2022/04/18 10:31:19;;;;;;;2.43;2.30;;;;;;;19.43;30.58;101830.38;4968875;28;96941;-84
2022/04/18 10:33:45;;;;;;;2.40;2.20;;;;;;;19.14;32.21;101833.19;4991810;28;101126;-84
2022/04/18 10:36:12;;;;;;;4.13;2.70;;;;;;;19.08;32.99;101821.34;4974514;28;99110;-82
2022/04/18 10:38:40;;;;;;;2.33;2.23;;;;;;;19.12;32.49;101822.56;4974748;28;96852;-82
2022/04/18 10:41:36;;;;;;;2.07;1.90;;;;;;;19.24;31.32;101818.34;4973452;28;97078;-84
2022/04/18 10:44:10;;;;;;;2.40;2.27;;;;;;;19.41;32.63;101812.63;4968169;28;102165;-82
2022/04/18 10:46:39;;;;;;;2.57;2.40;;;;;;;19.72;32.66;101822.38;4968132;28;97104;-83
2022/04/18 10:49:27;;;;;;;2.40;2.20;;;;;;;19.88;29.16;101816.56;4969225;28;96782;-83
2022/04/18 10:51:54;;;;;;;2.40;2.30;;;;;;;19.89;32.36;101828.50;4964728;28;99926;-83
2022/04/18 10:54:25;;;;;;;3.67;2.90;;;;;;;20.00;32.20;101811.59;4990334;28;101079;-82
2022/04/18 10:57:01;;;;;;;2.60;2.40;;;;;;;20.25;30.37;101813.00;4980812;28;97167;-82
2022/04/18 10:59:29;;;;;;;2.30;2.10;;;;;;;20.38;31.21;101815.09;4986936;28;96998;-84
2022/04/18 11:01:58;;;;;;;2.80;2.60;;;;;;;20.19;30.52;101795.53;4985451;28;99333;-83
2022/04/18 11:04:28;;;;;;;2.20;2.10;;;;;;;20.34;30.31;101807.00;4966700;28;99187;-83
2022/04/18 11:07:05;;;;;;;2.40;2.20;;;;;;;20.54;30.15;101808.47;4969003;28;96886;-82
2022/04/18 11:09:35;;;;;;;4.83;2.20;;;;;;;20.85;30.63;101814.03;4976613;28;96667;-81
2022/04/18 11:12:08;;;;;;;2.20;2.00;;;;;;;21.17;30.77;101797.16;4979558;28;98965;-81
2022/04/18 11:14:47;;;;;;;2.10;2.00;;;;;;;21.44;29.34;101792.28;4980699;28;97138;-81
2022/04/18 11:17:23;;;;;;;2.07;1.97;;;;;;;21.65;30.45;101793.09;4977412;28;97043;-80
2022/04/18 11:19:48;;;;;;;2.50;2.33;;;;;;;21.85;30.56;101795.22;4986457;28;98055;-80
2022/04/18 11:22:19;;;;;;;3.20;2.20;;;;;;;22.05;29.43;101793.75;4980431;28;97029;-81
2022/04/18 11:24:54;;;;;;;3.63;2.17;;;;;;;22.25;29.47;101784.59;4977312;28;100443;-81
2022/04/18 11:27:27;;;;;;;1.87;1.77;;;;;;;22.41;29.73;101777.06;4988345;28;96926;-82
2022/04/18 11:29:53;;;;;;;2.47;2.27;;;;;;;22.55;30.04;101784.09;4975060;28;96825;-80
2022/04/18 11:32:21;;;;;;;2.60;2.40;;;;;;;22.64;29.78;101786.44;4968688;28;97087;-82
2022/04/18 11:34:49;;;;;;;2.33;2.23;;;;;;;22.78;29.69;101771.03;4979292;28;97550;-80
2022/04/18 11:37:24;;;;;;;3.37;3.07;;;;;;;22.77;28.16;101772.31;4971499;28;96653;-80
2022/04/18 11:39:55;;;;;;;2.60;2.40;;;;;;;22.72;28.78;101776.78;4971181;28;96634;-79
2022/04/18 11:42:23;;;;;;;5.73;2.50;;;;;;;22.83;29.34;101758.88;4972808;28;99675;-82
2022/04/18 11:44:51;;;;;;;2.13;2.03;;;;;;;22.98;29.06;101758.97;4969034;28;96897;-82
2022/04/18 11:47:21;;;;;;;2.83;2.60;;;;;;;22.99;26.69;101763.28;4971810;28;96969;-84
2022/04/18 11:49:49;;;;;;;2.97;2.77;;;;;;;22.79;28.23;101776.06;4967893;28;97441;-83